Time;durP1;ratioP1;P1;durP2;ratioP2;P2;SDS_P1;SDS_P2;PMS_P1;PMS_P2;Temp;Humidity;BMP_temperature;BMP_pressure;BME280_temperature;BME280_humidity;BME280_pressure;Samples;Min_cycle;Max_cycle;Signal;HPM_P1;HPM_P2
2023/04/12 00:00:55;;;;;;;12.23;8.93;;;13.90;99.90;;;;;;4590385;19;20010;-31
2023/04/12 00:02:26;;;;;;;11.43;8.98;;;13.80;99.90;;;;;;4590077;19;20006;-31
2023/04/12 00:04:04;;;;;;;11.57;9.60;;;13.90;99.90;;;;;;4591196;19;20010;-30
2023/04/12 00:05:36;;;;;;;12.40;10.27;;;13.90;99.90;;;;;;4591879;19;20014;-31
2023/04/12 00:07:09;;;;;;;12.00;9.70;;;13.90;99.90;;;;;;4591193;19;20011;-31
2023/04/12 00:08:41;;;;;;;12.25;9.95;;;13.80;99.90;;;;;;4591179;19;20010;-31
2023/04/12 00:10:13;;;;;;;13.30;10.37;;;13.80;99.90;;;;;;4588266;19;20031;-31
2023/04/12 00:11:44;;;;;;;13.65;10.02;;;13.90;99.90;;;;;;4589397;19;20010;-31
2023/04/12 00:13:16;;;;;;;14.57;10.87;;;13.80;99.90;;;;;;4589566;19;20015;-30
2023/04/12 00:14:50;;;;;;;15.57;11.50;;;13.80;99.90;;;;;;4589889;19;20023;-31
2023/04/12 00:16:23;;;;;;;14.70;10.33;;;13.90;99.90;;;;;;4590742;19;20033;-31
2023/04/12 00:17:54;;;;;;;13.60;10.47;;;13.80;99.90;;;;;;4591564;19;20021;-31
2023/04/12 00:19:26;;;;;;;;;;;13.90;99.90;;;;;;4591883;19;20041;-30
2023/04/12 00:21:02;;;;;;;13.67;10.53;;;13.80;99.90;;;;;;4590735;19;19915;-30
2023/04/12 00:22:35;;;;;;;14.77;11.40;;;13.90;99.90;;;;;;4590538;19;20015;-30
2023/04/12 00:24:07;;;;;;;12.37;10.93;;;13.80;99.90;;;;;;4591292;19;20010;-30
2023/04/12 00:25:40;;;;;;;16.50;12.67;;;13.80;99.90;;;;;;4590597;19;20579;-30
2023/04/12 00:27:12;;;;;;;20.43;14.73;;;13.80;99.90;;;;;;4589687;19;20010;-30
2023/04/12 00:28:44;;;;;;;19.92;14.23;;;13.80;99.90;;;;;;4590269;19;20092;-31
2023/04/12 00:30:16;;;;;;;15.20;12.13;;;13.80;99.90;;;;;;4590389;19;20449;-31
2023/04/12 00:31:47;;;;;;;17.27;12.93;;;13.80;99.90;;;;;;4590455;19;20014;-31
2023/04/12 00:33:19;;;;;;;17.25;12.75;;;13.70;99.90;;;;;;4590918;19;20361;-31
2023/04/12 00:34:50;;;;;;;16.33;12.40;;;13.80;99.90;;;;;;4591297;19;19998;-31
2023/04/12 00:36:23;;;;;;;15.00;11.80;;;13.70;99.90;;;;;;4589085;19;20010;-31
2023/04/12 00:37:55;;;;;;;13.63;11.77;;;13.70;99.90;;;;;;4589140;19;20500;-30
2023/04/12 00:39:28;;;;;;;15.47;12.47;;;13.80;99.90;;;;;;4590287;19;20498;-30
2023/04/12 00:40:59;;;;;;;15.27;11.07;;;13.80;99.90;;;;;;4590993;19;20023;-31
2023/04/12 00:42:31;;;;;;;13.20;10.37;;;13.80;99.90;;;;;;4590160;19;20022;-31
2023/04/12 00:44:03;;;;;;;15.20;11.10;;;13.80;99.90;;;;;;4590263;19;20346;-31
2023/04/12 00:45:36;;;;;;;15.63;11.27;;;13.80;99.90;;;;;;4590374;19;20010;-31
2023/04/12 00:47:07;;;;;;;14.43;11.53;;;13.80;99.90;;;;;;4590751;19;20015;-30
2023/04/12 00:48:39;;;;;;;14.48;11.63;;;13.80;99.90;;;;;;4590170;19;20010;-31
2023/04/12 00:50:11;;;;;;;16.37;13.23;;;13.80;99.90;;;;;;4589851;19;20015;-31
2023/04/12 00:51:42;;;;;;;19.38;17.25;;;13.80;99.90;;;;;;4590524;19;20032;-30
2023/04/12 00:53:14;;;;;;;17.03;14.40;;;13.70;99.90;;;;;;4590038;19;20007;-31
2023/04/12 00:54:45;;;;;;;15.30;12.15;;;13.80;99.90;;;;;;4590061;19;20433;-31
2023/04/12 00:56:18;;;;;;;15.93;12.48;;;13.80;99.90;;;;;;4590665;19;20027;-31
2023/04/12 00:57:50;;;;;;;16.57;11.87;;;13.70;99.90;;;;;;4590436;19;20018;-30
2023/04/12 00:59:23;;;;;;;14.60;11.90;;;13.80;99.90;;;;;;4590566;19;20018;-30
2023/04/12 01:00:54;;;;;;;14.70;11.80;;;13.70;99.90;;;;;;4589843;19;20006;-30
2023/04/12 01:02:26;;;;;;;14.17;11.40;;;13.70;99.90;;;;;;4590492;19;20080;-30
2023/04/12 01:04:00;;;;;;;14.53;12.13;;;13.80;99.90;;;;;;4590142;19;20021;-31
2023/04/12 01:05:32;;;;;;;;;;;13.70;99.90;;;;;;4589761;19;20031;-31
2023/04/12 01:07:32;;;;;;;16.30;12.68;;;13.70;99.90;;;;;;4589562;19;19995;-31
2023/04/12 01:09:15;;;;;;;16.30;13.23;;;13.70;99.90;;;;;;4589083;19;20011;-30
2023/04/12 01:11:12;;;;;;;17.70;12.70;;;13.80;99.90;;;;;;4588634;19;20500;-30
2023/04/12 01:12:47;;;;;;;17.27;13.27;;;13.70;99.90;;;;;;4588667;19;20024;-31
2023/04/12 01:14:38;;;;;;;13.90;11.93;;;13.70;99.90;;;;;;4590012;19;20002;-30
2023/04/12 01:16:11;;;;;;;14.47;12.47;;;13.70;99.90;;;;;;4590555;19;20002;-30
2023/04/12 01:17:56;;;;;;;16.00;12.20;;;13.70;99.90;;;;;;4588568;19;20017;-31
2023/04/12 01:19:56;;;;;;;15.17;11.50;;;13.70;99.90;;;;;;4588501;19;20074;-31
2023/04/12 01:22:24;;;;;;;14.10;11.23;;;13.70;99.90;;;;;;4588642;19;20519;-31
2023/04/12 01:24:12;;;;;;;15.60;12.77;;;13.70;99.90;;;;;;4592010;19;20010;-30
2023/04/12 01:25:47;;;;;;;14.87;11.97;;;13.70;99.90;;;;;;4591981;19;20035;-31
2023/04/12 01:27:34;;;;;;;13.93;12.37;;;13.70;99.90;;;;;;4592435;19;20532;-30
2023/04/12 01:29:14;;;;;;;17.50;13.63;;;13.70;99.90;;;;;;4592170;19;20011;-31
2023/04/12 01:30:46;;;;;;;18.77;13.03;;;13.70;99.90;;;;;;4590695;19;20003;-30
2023/04/12 01:32:19;;;;;;;15.33;12.93;;;13.70;99.90;;;;;;4591846;19;20021;-30
2023/04/12 01:33:50;;;;;;;16.40;13.20;;;13.70;99.90;;;;;;4591797;19;20433;-31
2023/04/12 01:35:23;;;;;;;14.07;11.68;;;13.70;99.90;;;;;;4591825;19;20097;-31
2023/04/12 01:36:56;;;;;;;16.73;13.07;;;13.70;99.90;;;;;;4591495;19;20028;-31
2023/04/12 01:38:27;;;;;;;;;;;13.70;99.90;;;;;;4592603;19;20014;-30
2023/04/12 01:39:58;;;;;;;16.15;13.23;;;13.70;99.90;;;;;;4591823;19;19937;-31
2023/04/12 01:41:33;;;;;;;16.87;13.37;;;13.70;99.90;;;;;;4592042;19;20013;-31
2023/04/12 01:43:06;;;;;;;17.43;13.90;;;13.60;99.90;;;;;;4591726;19;20015;-31
2023/04/12 01:44:38;;;;;;;16.37;13.37;;;13.70;99.90;;;;;;4591488;19;20018;-30
2023/04/12 01:46:10;;;;;;;;;;;13.70;99.90;;;;;;4592848;19;20115;-31
2023/04/12 01:47:41;;;;;;;16.17;12.30;;;13.70;99.90;;;;;;4592049;19;20326;-31
2023/04/12 01:49:17;;;;;;;17.43;14.07;;;13.70;99.90;;;;;;4591950;19;20058;-30
2023/04/12 01:51:05;;;;;;;16.87;14.00;;;13.70;99.90;;;;;;4590463;19;20465;-31
2023/04/12 01:52:40;;;;;;;22.50;19.10;;;13.70;99.90;;;;;;4591260;19;20018;-30
2023/04/12 01:54:13;;;;;;;25.53;23.03;;;13.70;99.90;;;;;;4591158;19;20007;-31
2023/04/12 01:55:47;;;;;;;31.47;28.47;;;13.70;99.90;;;;;;4591982;19;20003;-31
2023/04/12 01:57:19;;;;;;;23.20;20.80;;;13.70;99.90;;;;;;4591563;19;20480;-31
2023/04/12 01:58:53;;;;;;;18.55;16.55;;;13.70;99.90;;;;;;4591408;19;20425;-31
2023/04/12 02:00:25;;;;;;;19.93;15.30;;;13.70;99.90;;;;;;4591788;19;20007;-31
2023/04/12 02:01:56;;;;;;;16.45;14.10;;;13.70;99.90;;;;;;4591571;19;20035;-31
2023/04/12 02:03:31;;;;;;;20.13;15.40;;;13.70;99.90;;;;;;4591178;19;20330;-30
2023/04/12 02:05:02;;;;;;;20.23;15.17;;;13.70;99.90;;;;;;4591414;19;20019;-31
2023/04/12 02:06:33;;;;;;;20.98;16.15;;;13.70;99.90;;;;;;4591945;19;20084;-30
2023/04/12 02:08:06;;;;;;;17.67;14.50;;;13.70;99.90;;;;;;4591694;19;20506;-30
2023/04/12 02:09:38;;;;;;;16.40;13.80;;;13.70;99.90;;;;;;4592291;19;20015;-30
2023/04/12 02:11:10;;;;;;;18.95;15.07;;;13.70;99.90;;;;;;4591599;19;20333;-30
2023/04/12 02:12:42;;;;;;;21.60;15.83;;;13.70;99.90;;;;;;4593547;19;20086;-31
2023/04/12 02:14:13;;;;;;;19.70;14.82;;;13.70;99.90;;;;;;4592272;19;20476;-31
2023/04/12 02:15:44;;;;;;;17.30;13.13;;;13.70;99.90;;;;;;4592331;19;20084;-31
2023/04/12 02:17:16;;;;;;;16.17;13.37;;;13.70;99.90;;;;;;4592275;19;20030;-31
2023/04/12 02:18:49;;;;;;;15.20;13.00;;;13.70;99.90;;;;;;4593440;19;20087;-31
2023/04/12 02:20:21;;;;;;;15.60;13.85;;;13.70;99.90;;;;;;4591918;19;20023;-30
2023/04/12 02:21:54;;;;;;;20.07;15.73;;;13.70;99.90;;;;;;4592860;19;20021;-30
2023/04/12 02:23:25;;;;;;;19.80;15.43;;;13.70;99.90;;;;;;4595362;19;20019;-31
2023/04/12 02:24:58;;;;;;;26.10;17.10;;;13.70;99.90;;;;;;4593829;19;20014;-30
2023/04/12 02:26:30;;;;;;;18.77;15.50;;;13.60;99.90;;;;;;4592977;19;20637;-30
2023/04/12 02:28:02;;;;;;;18.00;13.83;;;13.70;99.90;;;;;;4593278;19;20007;-31
2023/04/12 02:29:34;;;;;;;;;;;13.70;99.90;;;;;;4593282;19;20007;-30
2023/04/12 02:31:05;;;;;;;19.50;15.67;;;13.60;99.90;;;;;;4591148;19;19919;-31
2023/04/12 02:32:44;;;;;;;16.83;14.57;;;13.60;99.90;;;;;;4593340;19;20452;-30
2023/04/12 02:34:16;;;;;;;17.80;14.73;;;13.60;99.90;;;;;;4591096;19;20034;-30
2023/04/12 02:35:51;;;;;;;20.37;15.23;;;13.60;99.90;;;;;;4592798;19;20006;-31
2023/04/12 02:37:26;;;;;;;18.03;13.97;;;13.60;99.90;;;;;;4591875;19;20006;-31
2023/04/12 02:38:59;;;;;;;17.10;14.70;;;13.60;99.90;;;;;;4591846;19;20499;-31
2023/04/12 02:40:32;;;;;;;17.53;14.40;;;13.60;99.90;;;;;;4592612;19;20007;-30
2023/04/12 02:42:03;;;;;;;20.27;16.05;;;13.60;99.90;;;;;;4593139;19;20009;-31
2023/04/12 02:43:38;;;;;;;19.73;15.63;;;13.60;99.90;;;;;;4592976;19;20489;-31
2023/04/12 02:45:10;;;;;;;18.35;15.10;;;13.60;99.90;;;;;;4592799;19;20022;-31
2023/04/12 02:46:42;;;;;;;18.67;14.93;;;13.60;99.90;;;;;;4592979;19;20013;-31
2023/04/12 02:48:14;;;;;;;16.67;14.87;;;13.60;99.90;;;;;;4593115;19;20006;-31
2023/04/12 02:49:45;;;;;;;17.60;14.27;;;13.50;99.90;;;;;;4593307;19;20003;-30
2023/04/12 02:51:18;;;;;;;19.03;15.70;;;13.50;99.90;;;;;;4590831;19;20007;-31
2023/04/12 02:52:50;;;;;;;19.03;15.10;;;13.50;99.90;;;;;;4592901;19;20024;-31
2023/04/12 02:54:22;;;;;;;20.93;16.60;;;13.50;99.90;;;;;;4593175;19;20042;-31
2023/04/12 02:55:56;;;;;;;21.00;16.38;;;13.50;99.90;;;;;;4592324;19;20423;-31
2023/04/12 02:57:27;;;;;;;20.30;16.37;;;13.50;99.90;;;;;;4591464;19;20010;-30
2023/04/12 02:58:59;;;;;;;19.27;16.13;;;13.50;99.90;;;;;;4592116;19;20021;-31
2023/04/12 03:00:31;;;;;;;20.95;16.73;;;13.50;99.90;;;;;;4592735;19;20018;-30
2023/04/12 03:02:03;;;;;;;20.53;16.27;;;13.60;99.90;;;;;;4592219;19;20011;-30
2023/04/12 03:03:34;;;;;;;18.45;14.98;;;13.60;99.90;;;;;;4592526;19;20014;-31
2023/04/12 03:05:08;;;;;;;17.50;15.50;;;13.60;99.90;;;;;;4592561;19;20026;-30
2023/04/12 03:06:51;;;;;;;21.80;16.35;;;13.60;99.90;;;;;;4593012;19;20018;-31
2023/04/12 03:08:22;;;;;;;22.27;17.50;;;13.60;99.90;;;;;;4591894;19;20014;-31
2023/04/12 03:09:54;;;;;;;19.35;16.08;;;13.60;99.90;;;;;;4591521;19;20018;-31
2023/04/12 03:11:25;;;;;;;22.23;18.73;;;13.60;99.90;;;;;;4591457;19;20016;-31
2023/04/12 03:12:57;;;;;;;21.03;17.00;;;13.50;99.90;;;;;;4592429;19;20014;-31
2023/04/12 03:14:30;;;;;;;23.73;18.37;;;13.50;99.90;;;;;;4591930;19;20022;-30
2023/04/12 03:16:28;;;;;;;21.95;16.45;;;13.50;99.90;;;;;;4592472;19;20013;-31
2023/04/12 03:18:00;;;;;;;21.13;17.50;;;13.40;99.90;;;;;;4591841;19;20365;-30
2023/04/12 03:19:34;;;;;;;21.60;17.08;;;13.50;99.90;;;;;;4592577;19;20010;-30
2023/04/12 03:21:07;;;;;;;23.73;17.63;;;13.50;99.90;;;;;;4591313;19;20002;-30
2023/04/12 03:22:38;;;;;;;20.83;16.55;;;13.50;99.90;;;;;;4593813;19;20010;-30
2023/04/12 03:24:09;;;;;;;23.13;17.23;;;13.50;99.90;;;;;;4592137;19;20017;-31
2023/04/12 03:25:43;;;;;;;22.07;17.33;;;13.60;99.90;;;;;;4592640;19;20369;-31
2023/04/12 03:27:14;;;;;;;21.10;17.00;;;13.60;99.90;;;;;;4592089;19;20010;-31
2023/04/12 03:28:46;;;;;;;;;;;13.60;99.90;;;;;;4591471;19;20445;-31
2023/04/12 03:30:17;;;;;;;23.03;18.93;;;13.60;99.90;;;;;;4590811;19;20336;-31
2023/04/12 03:31:50;;;;;;;22.37;18.93;;;13.50;99.90;;;;;;4593990;19;20015;-30
2023/04/12 03:33:22;;;;;;;;;;;13.50;99.90;;;;;;4592425;19;20070;-31
2023/04/12 03:34:54;;;;;;;22.97;16.83;;;13.40;99.90;;;;;;4591419;19;19939;-31
2023/04/12 03:36:26;;;;;;;22.87;17.50;;;13.40;99.90;;;;;;4593714;19;20017;-30
2023/04/12 03:37:57;;;;;;;25.83;19.30;;;13.50;99.90;;;;;;4592649;19;20010;-31
2023/04/12 03:39:29;;;;;;;27.47;20.27;;;13.40;99.90;;;;;;4593255;19;20006;-31
2023/04/12 03:41:01;;;;;;;25.77;18.57;;;13.50;99.90;;;;;;4593737;19;20014;-31
2023/04/12 03:42:34;;;;;;;29.33;20.00;;;13.50;99.90;;;;;;4592376;19;20504;-30
2023/04/12 03:44:06;;;;;;;24.30;18.23;;;13.50;99.90;;;;;;4593064;19;20018;-31
2023/04/12 03:45:37;;;;;;;27.13;20.70;;;13.50;99.90;;;;;;4591874;19;20021;-31
2023/04/12 03:47:10;;;;;;;25.50;19.73;;;13.50;99.90;;;;;;4591450;19;20018;-31
2023/04/12 03:48:45;;;;;;;22.13;17.40;;;13.60;99.90;;;;;;4589023;19;20520;-32
2023/04/12 03:50:21;;;;;;;23.30;18.00;;;13.60;99.90;;;;;;4590842;19;20015;-31
2023/04/12 03:51:54;;;;;;;21.50;17.17;;;13.60;99.90;;;;;;4591123;19;20048;-31
2023/04/12 03:53:29;;;;;;;24.07;17.57;;;13.60;99.90;;;;;;4590506;19;20026;-30
2023/04/12 03:55:00;;;;;;;22.60;18.03;;;13.60;99.90;;;;;;4590647;19;20062;-30
2023/04/12 03:56:32;;;;;;;21.53;17.40;;;13.70;99.90;;;;;;4590397;19;20018;-30
2023/04/12 03:58:03;;;;;;;23.88;18.40;;;13.70;99.90;;;;;;4591582;19;20476;-31
2023/04/12 03:59:36;;;;;;;22.43;18.33;;;13.70;99.90;;;;;;4592547;19;20018;-30
2023/04/12 04:01:08;;;;;;;26.90;20.95;;;13.70;99.90;;;;;;4591505;19;20109;-30
2023/04/12 04:02:43;;;;;;;25.70;19.23;;;13.80;99.90;;;;;;4590921;19;20007;-31
2023/04/12 04:04:14;;;;;;;;;;;13.80;99.90;;;;;;4590058;19;20085;-30
2023/04/12 04:05:46;;;;;;;22.50;16.67;;;13.80;99.90;;;;;;4590448;19;19928;-30
2023/04/12 04:07:20;;;;;;;22.03;17.43;;;13.90;99.90;;;;;;4590159;19;20007;-31
2023/04/12 04:08:52;;;;;;;20.43;16.60;;;14.00;99.90;;;;;;4589092;19;20385;-31
2023/04/12 04:10:24;;;;;;;24.73;18.98;;;13.90;99.90;;;;;;4590293;19;20007;-30
2023/04/12 04:11:55;;;;;;;21.45;17.58;;;13.90;99.90;;;;;;4591650;19;20015;-30
2023/04/12 04:13:27;;;;;;;20.27;16.25;;;14.00;99.90;;;;;;4589986;19;20010;-31
2023/04/12 04:14:59;;;;;;;22.27;17.17;;;14.10;99.90;;;;;;4589153;19;20045;-31
2023/04/12 04:16:31;;;;;;;20.75;16.90;;;14.20;99.90;;;;;;4590249;19;20038;-31
2023/04/12 04:18:03;;;;;;;21.20;16.90;;;14.20;99.90;;;;;;4592282;19;20018;-31
2023/04/12 04:19:35;;;;;;;22.88;18.50;;;14.30;99.90;;;;;;4589832;19;20015;-31
2023/04/12 04:21:07;;;;;;;22.97;18.17;;;14.30;99.90;;;;;;4590092;19;20086;-31
2023/04/12 04:22:43;;;;;;;24.03;17.43;;;14.30;99.90;;;;;;4589518;19;20407;-31
2023/04/12 04:24:17;;;;;;;22.43;17.07;;;14.40;99.90;;;;;;4590326;19;20010;-31
2023/04/12 04:25:49;;;;;;;21.70;18.27;;;14.40;99.90;;;;;;4589078;19;20484;-31
2023/04/12 04:27:22;;;;;;;20.93;18.07;;;14.30;99.90;;;;;;4589500;19;20479;-31
2023/04/12 04:28:54;;;;;;;23.70;18.33;;;14.20;99.90;;;;;;4589749;19;20011;-30
2023/04/12 04:30:25;;;;;;;23.80;18.60;;;14.20;99.90;;;;;;4589278;19;20491;-39
2023/04/12 04:31:57;;;;;;;22.43;17.47;;;14.10;99.90;;;;;;4590156;19;20022;-30
2023/04/12 04:33:34;;;;;;;22.40;17.90;;;14.10;99.90;;;;;;4589322;19;20010;-31
2023/04/12 04:35:06;;;;;;;23.03;17.63;;;14.10;99.90;;;;;;4590703;19;20014;-31
2023/04/12 04:36:37;;;;;;;21.93;17.87;;;14.10;99.90;;;;;;4590119;19;20010;-31
2023/04/12 04:38:09;;;;;;;22.15;16.75;;;14.00;99.90;;;;;;4589160;19;20014;-31
2023/04/12 04:39:40;;;;;;;22.58;18.00;;;14.00;99.90;;;;;;4588605;19;20014;-31
2023/04/12 04:41:11;;;;;;;21.65;17.10;;;14.00;99.90;;;;;;4588848;19;20031;-31
2023/04/12 04:42:45;;;;;;;22.95;17.50;;;14.00;99.90;;;;;;4591410;19;20011;-31
2023/04/12 04:44:17;;;;;;;23.33;17.20;;;14.00;99.90;;;;;;4590842;19;20011;-31
2023/04/12 04:45:53;;;;;;;25.77;18.77;;;14.00;99.90;;;;;;4590475;19;20361;-31
2023/04/12 04:47:29;;;;;;;22.13;16.67;;;14.00;99.90;;;;;;4587489;19;20022;-30
2023/04/12 04:49:01;;;;;;;22.27;17.43;;;14.00;99.90;;;;;;4590011;19;20015;-31
2023/04/12 04:50:33;;;;;;;20.87;17.20;;;14.00;99.90;;;;;;4590159;19;20010;-30
2023/04/12 04:52:07;;;;;;;23.98;17.58;;;14.00;99.90;;;;;;4590545;19;20502;-30
2023/04/12 04:53:39;;;;;;;22.03;17.30;;;14.00;99.90;;;;;;4590274;19;20006;-30
2023/04/12 04:55:12;;;;;;;22.17;17.03;;;14.00;99.90;;;;;;4590089;19;20006;-31
2023/04/12 04:56:44;;;;;;;;;;;14.00;99.90;;;;;;4586539;19;20517;-31
2023/04/12 04:58:15;;;;;;;19.10;15.57;;;14.10;99.90;;;;;;4588167;19;19952;-31
2023/04/12 04:59:46;;;;;;;21.15;17.40;;;14.10;99.90;;;;;;4588493;19;20019;-31
2023/04/12 05:01:18;;;;;;;17.20;13.82;;;14.10;99.90;;;;;;4588347;19;20025;-31
2023/04/12 05:02:49;;;;;;;18.85;15.75;;;14.10;99.90;;;;;;4587168;19;20010;-31
2023/04/12 05:04:20;;;;;;;22.70;17.30;;;14.10;99.90;;;;;;4590492;19;20033;-31
2023/04/12 05:05:52;;;;;;;20.10;14.98;;;14.10;99.90;;;;;;4588983;19;20800;-31
2023/04/12 05:07:24;;;;;;;20.02;16.10;;;14.10;99.90;;;;;;4588463;19;20467;-31
2023/04/12 05:08:56;;;;;;;22.13;17.27;;;14.10;99.90;;;;;;4587203;19;20022;-31
2023/04/12 05:10:27;;;;;;;20.95;15.98;;;14.10;99.90;;;;;;4583794;19;20341;-30
2023/04/12 05:11:59;;;;;;;20.52;15.43;;;14.10;99.90;;;;;;4588465;19;20027;-30
2023/04/12 05:13:30;;;;;;;20.55;16.20;;;14.10;99.90;;;;;;4589351;19;20364;-30
2023/04/12 05:15:02;;;;;;;18.75;15.63;;;14.10;99.90;;;;;;4589885;19;20046;-31
2023/04/12 05:16:33;;;;;;;18.83;14.80;;;14.10;99.90;;;;;;4590147;19;20017;-30
2023/04/12 05:18:06;;;;;;;18.53;15.33;;;14.10;99.90;;;;;;4589349;19;20109;-30
2023/04/12 05:19:38;;;;;;;17.90;15.23;;;14.10;99.90;;;;;;4590370;19;20038;-30
2023/04/12 05:21:11;;;;;;;19.40;15.33;;;14.10;99.90;;;;;;4588443;19;20028;-30
2023/04/12 05:22:43;;;;;;;19.57;15.33;;;14.10;99.90;;;;;;4589945;19;20118;-31
2023/04/12 05:24:14;;;;;;;19.70;16.05;;;14.10;99.90;;;;;;4589936;19;20038;-30
2023/04/12 05:25:46;;;;;;;17.48;14.90;;;14.20;99.90;;;;;;4588068;19;20367;-30
2023/04/12 05:27:19;;;;;;;17.80;14.90;;;14.20;99.90;;;;;;4589056;19;20031;-31
2023/04/12 05:28:50;;;;;;;17.70;14.47;;;14.20;99.90;;;;;;4590369;19;20011;-31
2023/04/12 05:30:23;;;;;;;18.33;15.87;;;14.20;99.90;;;;;;4587899;19;20539;-30
2023/04/12 05:31:54;;;;;;;16.63;14.02;;;14.20;99.90;;;;;;4589395;19;20015;-31
2023/04/12 05:33:26;;;;;;;18.23;14.45;;;14.20;99.90;;;;;;4589360;19;20018;-31
2023/04/12 05:34:57;;;;;;;21.25;15.63;;;14.20;99.90;;;;;;4589595;19;20373;-31
2023/04/12 05:36:30;;;;;;;18.70;15.03;;;14.20;99.90;;;;;;4589603;19;20069;-31
2023/04/12 05:38:02;;;;;;;18.47;14.43;;;14.30;99.90;;;;;;4589394;19;20014;-31
2023/04/12 05:39:35;;;;;;;18.73;15.60;;;14.20;99.90;;;;;;4589607;19;20015;-31
2023/04/12 05:41:06;;;;;;;20.63;15.23;;;14.20;99.90;;;;;;4589514;19;20478;-31
2023/04/12 05:42:38;;;;;;;23.05;19.08;;;14.30;99.90;;;;;;4588541;19;20014;-31
2023/04/12 05:44:10;;;;;;;23.00;17.87;;;14.30;99.90;;;;;;4588960;19;20015;-31
2023/04/12 05:45:41;;;;;;;20.05;14.82;;;14.30;99.90;;;;;;4588470;19;20049;-31
2023/04/12 05:47:13;;;;;;;25.52;19.90;;;14.30;99.90;;;;;;4589612;19;20070;-30
2023/04/12 05:48:44;;;;;;;23.70;19.30;;;14.20;99.90;;;;;;4589206;19;20010;-31
2023/04/12 05:50:16;;;;;;;21.20;15.73;;;14.20;99.90;;;;;;4589427;19;20010;-30
2023/04/12 05:51:48;;;;;;;18.25;15.15;;;14.20;99.90;;;;;;4589214;19;20496;-31
2023/04/12 05:53:20;;;;;;;19.85;15.32;;;14.20;99.90;;;;;;4588139;19;20002;-31
2023/04/12 05:54:51;;;;;;;17.70;14.90;;;14.20;99.90;;;;;;4588539;19;20014;-31
2023/04/12 05:56:23;;;;;;;;;;;14.40;99.90;;;;;;4589958;19;20034;-31
2023/04/12 05:57:54;;;;;;;16.63;13.80;;;14.40;99.90;;;;;;4587821;19;19923;-31
2023/04/12 05:59:25;;;;;;;17.95;15.00;;;14.40;99.90;;;;;;4588740;19;20802;-31
2023/04/12 06:00:58;;;;;;;18.27;15.40;;;14.40;99.90;;;;;;4587506;19;20026;-31
2023/04/12 06:02:29;;;;;;;17.30;14.00;;;14.30;99.90;;;;;;4587365;19;20070;-31
2023/04/12 06:04:04;;;;;;;;;;;14.30;99.90;;;;;;4588886;19;20040;-31
2023/04/12 06:05:37;;;;;;;14.27;12.60;;;14.20;99.90;;;;;;4587826;19;19982;-31
2023/04/12 06:07:09;;;;;;;14.80;12.17;;;14.30;99.90;;;;;;4587831;19;20011;-30
2023/04/12 06:08:42;;;;;;;15.20;12.80;;;14.10;99.90;;;;;;4591723;19;20010;-31
2023/04/12 06:10:15;;;;;;;14.77;13.17;;;14.10;99.90;;;;;;4592113;19;20038;-31
2023/04/12 06:11:48;;;;;;;17.03;12.40;;;14.10;99.90;;;;;;4593295;19;20002;-30
2023/04/12 06:13:19;;;;;;;16.40;12.93;;;14.00;99.90;;;;;;4593581;19;20088;-31
2023/04/12 06:14:51;;;;;;;16.27;12.20;;;14.00;99.90;;;;;;4592590;19;20083;-31
2023/04/12 06:16:23;;;;;;;13.13;11.03;;;14.10;99.90;;;;;;4592630;19;20052;-31
2023/04/12 06:17:55;;;;;;;13.73;10.93;;;14.10;99.90;;;;;;4592923;19;20483;-31
2023/04/12 06:19:26;;;;;;;;;;;14.00;99.90;;;;;;4593065;19;20023;-31
2023/04/12 06:20:57;;;;;;;14.83;11.07;;;14.00;99.90;;;;;;4593251;19;20550;-31
2023/04/12 06:22:29;;;;;;;11.77;10.18;;;13.90;99.90;;;;;;4593460;19;20007;-31
2023/04/12 06:24:05;;;;;;;14.33;10.87;;;13.90;99.90;;;;;;4593270;19;20035;-30
2023/04/12 06:25:36;;;;;;;11.30;9.20;;;13.90;99.90;;;;;;4590558;19;20366;-31
2023/04/12 06:27:08;;;;;;;12.82;9.88;;;13.90;99.90;;;;;;4592585;19;20460;-30
2023/04/12 06:28:40;;;;;;;11.73;9.50;;;14.00;99.90;;;;;;4591639;19;20014;-31
2023/04/12 06:30:13;;;;;;;12.50;10.20;;;14.00;99.90;;;;;;4591900;19;20408;-31
2023/04/12 06:31:45;;;;;;;12.80;10.47;;;14.00;99.90;;;;;;4591422;19;20007;-30
2023/04/12 06:33:16;;;;;;;12.10;9.50;;;14.00;99.90;;;;;;4593606;19;20010;-31
2023/04/12 06:34:49;;;;;;;11.70;9.33;;;14.00;99.90;;;;;;4593628;19;20006;-31
2023/04/12 06:36:22;;;;;;;11.97;9.60;;;14.00;99.90;;;;;;4592882;19;20017;-31
2023/04/12 06:37:54;;;;;;;12.33;9.57;;;14.00;99.90;;;;;;4593127;19;20014;-30
2023/04/12 06:39:25;;;;;;;10.75;8.90;;;14.00;99.90;;;;;;4593342;19;20021;-30
2023/04/12 06:40:56;;;;;;;10.43;8.32;;;14.00;99.90;;;;;;4593109;19;20405;-31
2023/04/12 06:42:28;;;;;;;13.05;9.90;;;14.00;99.90;;;;;;4591876;19;20368;-31
2023/04/12 06:43:59;;;;;;;11.00;8.80;;;14.00;99.90;;;;;;4592748;19;20010;-30
2023/04/12 06:45:30;;;;;;;9.30;7.93;;;14.00;99.90;;;;;;4591743;19;20482;-31
2023/04/12 06:47:02;;;;;;;9.27;8.17;;;14.00;99.90;;;;;;4592032;19;20022;-30
2023/04/12 06:48:33;;;;;;;10.30;8.00;;;14.00;99.90;;;;;;4592797;19;20011;-30
2023/04/12 06:50:05;;;;;;;11.25;7.82;;;14.00;99.90;;;;;;4592744;19;20002;-30
2023/04/12 06:51:37;;;;;;;9.27;7.33;;;14.00;99.90;;;;;;4591748;19;20099;-31
2023/04/12 06:53:08;;;;;;;12.27;7.80;;;14.00;99.90;;;;;;4591340;19;20018;-30
2023/04/12 06:54:41;;;;;;;9.40;8.32;;;14.00;99.90;;;;;;4592194;19;20015;-31
2023/04/12 06:56:13;;;;;;;9.73;7.17;;;14.00;99.90;;;;;;4592209;19;20081;-30
2023/04/12 06:57:46;;;;;;;8.03;6.63;;;14.00;99.90;;;;;;4592577;19;20003;-30
2023/04/12 06:59:17;;;;;;;8.48;6.35;;;14.00;99.90;;;;;;4590158;19;20018;-30
2023/04/12 07:00:48;;;;;;;8.45;6.60;;;14.00;99.90;;;;;;4592184;19;20484;-31
2023/04/12 07:02:19;;;;;;;8.77;7.25;;;14.00;99.90;;;;;;4592818;19;20457;-30
2023/04/12 07:03:51;;;;;;;8.18;6.35;;;14.00;99.90;;;;;;4592500;19;20102;-30
2023/04/12 07:05:23;;;;;;;11.82;8.45;;;14.00;99.90;;;;;;4590954;19;20463;-30
2023/04/12 07:06:55;;;;;;;10.83;8.23;;;14.00;99.90;;;;;;4591323;19;20010;-31
2023/04/12 07:08:26;;;;;;;9.77;6.93;;;14.00;99.90;;;;;;4592380;19;20364;-30
2023/04/12 07:09:59;;;;;;;9.53;7.10;;;14.00;99.90;;;;;;4590955;19;20476;-30
2023/04/12 07:11:30;;;;;;;9.57;7.40;;;13.90;99.90;;;;;;4590985;19;20021;-31
2023/04/12 07:13:05;;;;;;;9.75;7.18;;;14.00;99.90;;;;;;4592499;19;20515;-31
2023/04/12 07:14:37;;;;;;;9.63;6.83;;;13.90;99.90;;;;;;4591123;19;20018;-31
2023/04/12 07:16:10;;;;;;;9.80;7.13;;;13.90;99.90;;;;;;4591459;19;20010;-31
2023/04/12 07:17:44;;;;;;;10.30;6.93;;;13.90;99.90;;;;;;4591053;19;20017;-30
2023/04/12 07:19:22;;;;;;;9.30;6.90;;;13.90;99.90;;;;;;4591403;19;20014;-30
2023/04/12 07:20:55;;;;;;;7.38;6.15;;;13.90;99.90;;;;;;4586849;19;20554;-31
2023/04/12 07:22:26;;;;;;;10.20;6.47;;;13.90;99.90;;;;;;4590541;19;20014;-30
2023/04/12 07:23:59;;;;;;;8.77;6.45;;;13.90;99.90;;;;;;4591921;19;20014;-31
2023/04/12 07:25:30;;;;;;;7.87;6.37;;;14.00;99.90;;;;;;4590593;19;20034;-31
2023/04/12 07:27:02;;;;;;;6.68;5.35;;;14.00;99.90;;;;;;4591670;19;20346;-30
2023/04/12 07:28:37;;;;;;;7.33;5.47;;;14.00;99.90;;;;;;4590730;19;20082;-30
2023/04/12 07:30:09;;;;;;;7.30;6.07;;;13.90;99.90;;;;;;4591266;19;20015;-31
2023/04/12 07:31:40;;;;;;;;;;;14.00;99.90;;;;;;4591837;19;20348;-31
2023/04/12 07:33:12;;;;;;;6.68;5.30;;;13.90;99.90;;;;;;4592532;19;19918;-31
2023/04/12 07:34:44;;;;;;;6.27;5.17;;;13.90;99.90;;;;;;4590145;19;20010;-30
2023/04/12 07:36:20;;;;;;;7.70;6.07;;;13.90;99.90;;;;;;4591428;19;20011;-31
2023/04/12 07:37:52;;;;;;;6.87;5.40;;;13.90;99.90;;;;;;4592084;19;20325;-31
2023/04/12 07:39:23;;;;;;;7.67;5.43;;;13.90;99.90;;;;;;4592005;19;20023;-31
2023/04/12 07:40:55;;;;;;;7.77;5.70;;;13.90;99.90;;;;;;4591627;19;20014;-31
2023/04/12 07:42:28;;;;;;;7.20;5.70;;;13.90;99.90;;;;;;4591590;19;20358;-30
2023/04/12 07:44:01;;;;;;;7.87;5.93;;;14.00;99.90;;;;;;4592327;19;20026;-30
2023/04/12 07:45:35;;;;;;;8.10;5.30;;;13.90;99.90;;;;;;4592178;19;20007;-31
2023/04/12 07:47:07;;;;;;;7.40;6.37;;;13.90;99.90;;;;;;4591619;19;20034;-30
2023/04/12 07:48:42;;;;;;;7.77;5.67;;;14.00;99.90;;;;;;4590715;19;20010;-30
2023/04/12 07:50:14;;;;;;;9.27;5.57;;;14.00;99.90;;;;;;4590535;19;20010;-31
2023/04/12 07:51:52;;;;;;;9.30;5.88;;;13.90;99.90;;;;;;4588020;19;20049;-31
2023/04/12 07:53:26;;;;;;;9.07;7.10;;;13.90;99.90;;;;;;4592754;19;20078;-31
2023/04/12 07:54:57;;;;;;;9.03;6.70;;;14.00;99.90;;;;;;4591227;19;20016;-31
2023/04/12 07:56:29;;;;;;;10.88;6.75;;;14.00;99.90;;;;;;4591925;19;20081;-31